Time;durP1;ratioP1;P1;durP2;ratioP2;P2;SDS_P1;SDS_P2;PMS_P1;PMS_P2;Temp;Humidity;BMP_temperature;BMP_pressure;BME280_temperature;BME280_humidity;BME280_pressure;Samples;Min_cycle;Max_cycle;Signal;HPM_P1;HPM_P2
2022/10/06 00:01:08;;;;;;;13.40;8.63;;;;;;;6.62;85.51;98906.62;1704359;82;20979;-80
2022/10/06 00:03:37;;;;;;;12.10;7.30;;;;;;;6.63;85.50;98901.78;1732458;82;21008;-80
2022/10/06 00:06:05;;;;;;;13.80;7.40;;;;;;;6.65;85.73;98893.47;1732824;82;21399;-80
2022/10/06 00:08:37;;;;;;;13.15;8.15;;;;;;;6.63;85.78;98894.78;1704864;83;21492;-80
2022/10/06 00:11:05;;;;;;;16.80;7.95;;;;;;;6.65;86.09;98889.52;1733545;82;21362;-80
2022/10/06 00:13:32;;;;;;;12.23;7.78;;;;;;;6.65;85.76;98894.78;1733288;82;20995;-81
2022/10/06 00:15:59;;;;;;;11.48;7.35;;;;;;;6.68;86.52;98890.84;1698970;83;21043;-81
2022/10/06 00:18:28;;;;;;;11.30;7.30;;;;;;;6.77;86.41;98889.96;1732922;82;21473;-81
2022/10/06 00:20:58;;;;;;;12.88;6.90;;;;;;;6.79;86.04;98891.72;1729079;82;20984;-81
2022/10/06 00:23:27;;;;;;;12.75;6.75;;;;;;;6.80;86.09;98889.52;1729486;82;21026;-81
2022/10/06 00:25:54;;;;;;;12.23;7.15;;;;;;;6.78;85.80;98890.39;1733609;82;20992;-81
2022/10/06 00:28:22;;;;;;;12.78;7.10;;;;;;;6.73;85.85;98893.05;1726625;82;21053;-81
2022/10/06 00:30:52;;;;;;;14.20;7.22;;;;;;;6.71;85.90;98893.46;1727505;82;21406;-81
2022/10/06 00:33:17;;;;;;;11.05;6.75;;;;;;;6.68;85.75;98888.21;1728050;82;21442;-81
2022/10/06 00:35:46;;;;;;;10.75;7.12;;;;;;;6.65;85.97;98890.41;1740098;82;20964;-81
2022/10/06 00:38:16;;;;;;;12.18;6.60;;;;;;;6.69;86.27;98883.38;1726957;82;21028;-81
2022/10/06 00:40:50;;;;;;;12.18;6.95;;;;;;;6.69;86.26;98883.38;1727827;82;21052;-81
2022/10/06 00:43:48;;;;;;;9.75;6.37;;;;;;;6.72;86.37;98874.13;1725880;82;20949;-81
2022/10/06 00:46:38;;;;;;;13.55;7.17;;;;;;;6.70;85.70;98872.84;1733764;82;21040;-80
2022/10/06 00:49:30;;;;;;;10.72;6.62;;;;;;;6.63;85.72;98873.70;1728901;82;21050;-80
2022/10/06 00:52:01;;;;;;;12.35;6.40;;;;;;;6.51;85.44;98865.81;1725948;82;21064;-80
2022/10/06 00:54:30;;;;;;;17.05;7.72;;;;;;;6.49;85.69;98863.59;1726944;82;20992;-77
2022/10/06 00:56:57;;;;;;;13.70;7.75;;;;;;;6.46;85.61;98860.52;1727659;82;20985;-75
2022/10/06 00:59:23;;;;;;;12.13;6.47;;;;;;;6.36;85.20;98862.70;1712611;81;21317;-80
2022/10/06 01:01:59;;;;;;;11.78;6.47;;;;;;;6.28;85.16;98863.58;1742280;81;21399;-79
2022/10/06 01:04:35;;;;;;;9.55;6.12;;;;;;;6.20;85.38;98864.86;1726724;82;20971;-79
2022/10/06 01:07:02;;;;;;;9.93;6.37;;;;;;;6.16;85.44;98871.02;1727125;82;21087;-79
2022/10/06 01:09:30;;;;;;;12.33;6.28;;;;;;;6.10;85.46;98870.11;1728053;82;21087;-79
2022/10/06 01:12:01;;;;;;;11.15;6.70;;;;;;;6.08;85.64;98875.37;1727515;82;21020;-79
2022/10/06 01:14:29;;;;;;;12.73;7.03;;;;;;;6.04;85.78;98877.12;1731035;82;21032;-79
2022/10/06 01:17:01;;;;;;;9.38;6.20;;;;;;;6.03;85.75;98875.80;1755781;82;21817;-79
2022/10/06 01:19:58;;;;;;;13.68;6.78;;;;;;;6.00;85.65;98873.11;1733805;82;21016;-78
2022/10/06 01:22:44;;;;;;;12.80;6.62;;;;;;;5.95;85.82;98880.55;1745054;82;21051;-78
2022/10/06 01:25:15;;;;;;;13.20;7.40;;;;;;;5.89;85.84;98875.27;1710528;83;20971;-79
2022/10/06 01:27:52;;;;;;;11.08;7.15;;;;;;;5.85;86.20;98877.44;1749102;82;21101;-78
2022/10/06 01:30:21;;;;;;;10.75;6.75;;;;;;;5.84;86.17;98880.95;1727663;82;21402;-79
2022/10/06 01:32:48;;;;;;;13.32;7.00;;;;;;;5.83;86.45;98873.94;1725320;82;21116;-79
2022/10/06 01:35:15;;;;;;;12.95;7.17;;;;;;;5.83;86.38;98883.58;1738313;82;21003;-79
2022/10/06 01:37:42;;;;;;;11.22;7.17;;;;;;;5.82;86.20;98869.56;1758300;82;21446;-80
2022/10/06 01:40:09;;;;;;;8.85;6.08;;;;;;;5.83;86.43;98879.63;1728924;82;20964;-80
2022/10/06 01:42:36;;;;;;;11.83;6.95;;;;;;;5.83;86.20;98878.31;1728100;83;20992;-79
2022/10/06 01:45:04;;;;;;;9.90;6.25;;;;;;;5.78;86.19;98873.91;1727718;83;20976;-79
2022/10/06 01:47:33;;;;;;;11.70;7.40;;;;;;;5.75;86.17;98875.23;1728115;83;21019;-79
2022/10/06 01:50:00;;;;;;;14.18;6.97;;;;;;;5.75;86.26;98874.34;1747560;82;20968;-79
2022/10/06 01:52:28;;;;;;;11.60;6.97;;;;;;;5.73;86.37;98875.64;1739196;82;21027;-79
2022/10/06 01:54:54;;;;;;;11.53;6.65;;;;;;;5.70;86.37;98881.33;1736244;82;20992;-79
2022/10/06 01:57:21;;;;;;;12.25;7.33;;;;;;;5.68;86.42;98881.31;1746751;82;21396;-79
2022/10/06 01:59:48;;;;;;;13.00;6.87;;;;;;;5.63;86.47;98879.10;1745893;82;21044;-79
2022/10/06 02:02:15;;;;;;;11.18;6.50;;;;;;;5.62;86.78;98892.70;1729089;82;21052;-79
2022/10/06 02:04:42;;;;;;;11.60;6.47;;;;;;;5.60;86.65;98885.69;1743672;82;21036;-80
2022/10/06 02:07:09;;;;;;;9.13;6.55;;;;;;;5.60;87.60;98887.86;1736063;82;21028;-80
2022/10/06 02:09:38;;;;;;;9.68;6.72;;;;;;;5.62;87.26;98893.13;1741646;81;21004;-80
2022/10/06 02:12:05;;;;;;;11.25;7.12;;;;;;;5.61;86.75;98890.92;1730529;82;20984;-80
2022/10/06 02:14:33;;;;;;;11.25;6.80;;;;;;;5.63;87.07;98892.25;1744778;82;21004;-79
2022/10/06 02:17:00;;;;;;;10.28;6.15;;;;;;;5.63;86.90;98890.94;1747517;82;21032;-78
2022/10/06 02:19:26;;;;;;;9.08;6.25;;;;;;;5.61;86.86;98896.64;1728060;83;20995;-79
2022/10/06 02:21:53;;;;;;;8.88;5.20;;;;;;;5.63;86.80;98885.25;1727942;83;21048;-79
2022/10/06 02:24:20;;;;;;;9.25;5.80;;;;;;;5.64;86.75;98889.64;1746439;82;21409;-80
2022/10/06 02:26:46;;;;;;;8.73;5.92;;;;;;;5.64;86.80;98893.58;1741248;82;21044;-80
2022/10/06 02:29:13;;;;;;;7.47;5.03;;;;;;;5.68;86.92;98890.52;1748576;82;21359;-80
2022/10/06 02:31:40;;;;;;;9.08;5.40;;;;;;;5.72;87.13;98884.41;1731163;83;21032;-80
2022/10/06 02:34:07;;;;;;;8.78;5.60;;;;;;;5.75;87.08;98880.48;1730507;83;21422;-80
2022/10/06 02:36:33;;;;;;;10.65;5.00;;;;;;;5.75;86.99;98884.44;1701248;83;21620;-80
2022/10/06 02:39:00;;;;;;;10.32;5.35;;;;;;;5.76;87.48;98890.13;1712106;83;20996;-80
2022/10/06 02:41:27;;;;;;;7.10;4.75;;;;;;;5.87;87.85;98884.92;1728839;83;20992;-80
2022/10/06 02:43:54;;;;;;;8.48;4.80;;;;;;;5.91;87.90;98890.64;1730821;83;21449;-80
2022/10/06 02:46:21;;;;;;;14.83;5.17;;;;;;;5.97;87.73;98881.88;1743575;82;21556;-80
2022/10/06 02:48:50;;;;;;;8.65;5.17;;;;;;;5.95;87.38;98888.89;1731099;83;21067;-80
2022/10/06 02:51:20;;;;;;;6.40;4.37;;;;;;;5.90;87.29;98887.55;1731071;83;20996;-79
2022/10/06 02:53:49;;;;;;;9.30;5.03;;;;;;;5.91;87.64;98884.49;1738470;82;21490;-80
2022/10/06 02:56:23;;;;;;;7.25;4.60;;;;;;;5.91;87.59;98891.06;1736218;82;20996;-81
2022/10/06 02:58:51;;;;;;;10.03;4.92;;;;;;;5.91;87.70;98894.59;1748893;82;21555;-81
2022/10/06 03:01:24;;;;;;;7.85;4.92;;;;;;;5.90;87.46;98891.49;1734400;81;20988;-81
2022/10/06 03:03:52;;;;;;;7.40;4.87;;;;;;;5.85;87.53;98891.91;1708645;82;21039;-81
2022/10/06 03:06:23;;;;;;;8.98;5.30;;;;;;;5.84;87.91;98891.90;1737046;82;21087;-81
2022/10/06 03:09:04;;;;;;;9.68;5.10;;;;;;;5.86;88.05;98893.66;1736887;82;21008;-81
2022/10/06 03:11:38;;;;;;;10.53;5.62;;;;;;;5.85;88.07;98894.55;1748363;82;20982;-81
2022/10/06 03:14:06;;;;;;;8.98;5.05;;;;;;;5.87;87.88;98885.34;1731429;83;20984;-79
2022/10/06 03:16:39;;;;;;;8.08;5.40;;;;;;;5.84;87.41;98887.95;1731106;83;21000;-79
2022/10/06 03:19:09;;;;;;;10.85;5.10;;;;;;;5.80;87.60;98883.13;1731210;83;21004;-79
2022/10/06 03:21:40;;;;;;;6.37;5.00;;;;;;;5.74;87.03;98881.37;1731094;83;20972;-80
2022/10/06 03:24:07;;;;;;;6.85;4.87;;;;;;;5.65;86.78;98890.53;1746350;82;21403;-79
2022/10/06 03:26:44;;;;;;;7.58;4.83;;;;;;;5.57;86.93;98889.17;1727717;83;20960;-79
2022/10/06 03:29:11;;;;;;;11.80;5.75;;;;;;;5.50;86.74;98891.31;1704628;82;21401;-80
2022/10/06 03:31:39;;;;;;;8.85;5.35;;;;;;;5.46;87.29;98898.73;1749120;81;21039;-82
2022/10/06 03:34:06;;;;;;;11.55;5.67;;;;;;;5.45;87.22;98900.50;1746262;81;20968;-80
2022/10/06 03:36:34;;;;;;;7.62;5.15;;;;;;;5.44;86.96;98889.98;1740264;81;21003;-80
2022/10/06 03:39:04;;;;;;;9.85;5.25;;;;;;;5.40;87.28;98896.97;1748326;81;21067;-79
2022/10/06 03:41:35;;;;;;;8.35;4.95;;;;;;;5.37;87.31;98905.72;1705768;82;21031;-80
2022/10/06 03:44:04;;;;;;;8.70;5.47;;;;;;;5.35;87.17;98903.50;1738246;82;21008;-80
2022/10/06 03:46:35;;;;;;;9.18;5.65;;;;;;;5.31;86.79;98896.91;1735409;82;21457;-80
2022/10/06 03:49:04;;;;;;;8.23;5.78;;;;;;;5.26;86.75;98910.00;1738125;82;21390;-80
2022/10/06 03:51:40;;;;;;;7.95;5.58;;;;;;;5.19;86.84;98905.59;1726371;82;20964;-80
2022/10/06 03:54:13;;;;;;;10.00;5.03;;;;;;;5.17;87.03;98901.63;1737776;82;21070;-80
2022/10/06 03:56:40;;;;;;;11.03;5.70;;;;;;;5.11;86.90;98895.03;1741163;81;21016;-80
2022/10/06 03:59:12;;;;;;;7.65;5.50;;;;;;;5.05;86.81;98897.17;1765980;81;21011;-80
2022/10/06 04:01:43;;;;;;;9.90;6.17;;;;;;;4.99;86.92;98893.19;1742297;81;21047;-79
2022/10/06 04:04:11;;;;;;;10.55;5.53;;;;;;;4.96;87.31;98892.73;1705876;82;20984;-78
2022/10/06 04:06:42;;;;;;;11.15;5.60;;;;;;;4.96;87.11;98895.78;1738922;81;20995;-78
2022/10/06 04:09:13;;;;;;;11.10;5.90;;;;;;;4.93;87.11;98896.64;1735159;81;21057;-78
2022/10/06 04:11:41;;;;;;;6.85;5.60;;;;;;;4.90;87.28;98891.34;1747089;81;20980;-78
2022/10/06 04:14:11;;;;;;;10.25;6.58;;;;;;;4.86;87.14;98894.39;1742798;81;21269;-79
2022/10/06 04:16:45;;;;;;;7.75;5.95;;;;;;;4.80;87.18;98900.92;1736934;81;21094;-78
2022/10/06 04:19:14;;;;;;;;;;;;;;;4.78;87.27;98901.35;1737781;81;20993;-78
2022/10/06 04:21:46;;;;;;;10.85;5.83;;;;;;;4.73;87.41;98902.61;1735367;81;20140;-78
2022/10/06 04:24:19;;;;;;;9.33;5.42;;;;;;;4.71;87.75;98898.20;1762218;81;20962;-78
2022/10/06 04:26:47;;;;;;;9.48;5.05;;;;;;;4.70;87.68;98898.63;1736645;81;20994;-79
2022/10/06 04:29:14;;;;;;;9.70;5.40;;;;;;;4.72;87.93;98903.90;1718366;82;21469;-79
2022/10/06 04:31:42;;;;;;;10.32;5.17;;;;;;;4.71;88.01;98899.10;1703432;83;20994;-78
2022/10/06 04:34:12;;;;;;;10.90;5.53;;;;;;;4.72;88.02;98907.42;1704659;83;21016;-78
2022/10/06 04:36:42;;;;;;;18.20;5.25;;;;;;;4.72;87.67;98901.27;1705861;83;21048;-78
2022/10/06 04:39:12;;;;;;;8.13;5.28;;;;;;;4.68;87.70;98911.30;1705705;83;20973;-79
2022/10/06 04:41:45;;;;;;;7.75;4.78;;;;;;;4.67;88.16;98910.86;1687300;83;21525;-79
2022/10/06 04:44:10;;;;;;;13.53;5.17;;;;;;;4.69;88.06;98905.20;1676187;84;21004;-78
2022/10/06 04:46:37;;;;;;;8.58;5.25;;;;;;;4.69;87.79;98909.14;1705555;83;21008;-77
2022/10/06 04:49:05;;;;;;;8.93;5.90;;;;;;;4.70;88.52;98911.76;1704832;83;21012;-78
2022/10/06 04:51:33;;;;;;;11.05;6.40;;;;;;;4.70;88.24;98913.52;1704748;84;21012;-77
2022/10/06 04:54:02;;;;;;;12.05;5.95;;;;;;;4.71;88.31;98906.09;1705767;83;20996;-78
2022/10/06 04:56:31;;;;;;;15.15;5.90;;;;;;;4.75;88.67;98913.13;1705816;83;20957;-78
2022/10/06 04:59:00;;;;;;;10.15;5.97;;;;;;;4.78;88.96;98910.55;1705018;83;21484;-78
2022/10/06 05:01:33;;;;;;;9.50;5.08;;;;;;;4.84;88.74;98912.32;1705560;83;21027;-79
2022/10/06 05:04:04;;;;;;;8.53;5.15;;;;;;;4.88;88.72;98908.86;1703501;82;21023;-76
2022/10/06 05:06:36;;;;;;;9.60;4.65;;;;;;;4.96;88.58;98904.55;1702398;82;21070;-74
2022/10/06 05:09:12;;;;;;;13.50;5.00;;;;;;;5.03;89.06;98904.17;1709570;83;20992;-74
2022/10/06 05:11:40;;;;;;;14.40;4.55;;;;;;;5.08;89.06;98903.77;1704398;83;21047;-73
2022/10/06 05:14:09;;;;;;;8.55;4.47;;;;;;;5.14;89.42;98905.54;1705185;84;21051;-75
2022/10/06 05:16:37;;;;;;;7.85;4.65;;;;;;;5.22;89.64;98914.38;1705245;82;21011;-75
2022/10/06 05:19:07;;;;;;;13.32;5.35;;;;;;;5.27;89.21;98906.50;1705575;83;21019;-74
2022/10/06 05:21:37;;;;;;;16.97;5.75;;;;;;;5.33;89.29;98913.56;1705911;83;20980;-75
2022/10/06 05:24:06;;;;;;;11.10;5.15;;;;;;;5.45;89.31;98912.76;1726515;82;21445;-76
2022/10/06 05:26:35;;;;;;;7.85;4.47;;;;;;;5.52;89.04;98910.63;1702623;84;21453;-76
2022/10/06 05:29:04;;;;;;;11.38;5.12;;;;;;;5.59;89.24;98907.14;1704251;83;22179;-77
2022/10/06 05:31:37;;;;;;;9.98;4.78;;;;;;;5.65;89.22;98912.88;1687705;83;20980;-77
2022/10/06 05:34:04;;;;;;;10.60;5.00;;;;;;;5.74;89.01;98915.98;1705329;84;21059;-77
2022/10/06 05:36:32;;;;;;;12.98;4.85;;;;;;;5.80;88.87;98914.69;1704951;83;21011;-77
2022/10/06 05:39:01;;;;;;;8.30;4.42;;;;;;;5.87;88.86;98924.39;1705204;83;21012;-77
2022/10/06 05:41:32;;;;;;;8.43;5.05;;;;;;;5.98;88.89;98930.12;1704864;83;21029;-77
2022/10/06 05:44:01;;;;;;;10.28;5.03;;;;;;;6.06;88.85;98928.41;1705251;84;21099;-77
2022/10/06 05:46:32;;;;;;;11.48;4.50;;;;;;;6.12;88.70;98934.16;1704536;84;21015;-77
2022/10/06 05:49:02;;;;;;;6.58;4.17;;;;;;;6.20;88.70;98934.61;1705190;83;21052;-77
2022/10/06 05:51:33;;;;;;;10.68;5.03;;;;;;;6.28;88.63;98935.09;1676295;84;20976;-77
2022/10/06 05:54:02;;;;;;;6.17;4.20;;;;;;;6.34;88.38;98945.62;1705179;83;21454;-77
2022/10/06 05:56:35;;;;;;;7.78;4.55;;;;;;;6.38;88.20;98943.45;1705216;83;20991;-77
2022/10/06 05:59:03;;;;;;;9.93;4.90;;;;;;;6.40;88.08;98945.64;1705338;83;21108;-77
2022/10/06 06:01:42;;;;;;;10.95;4.97;;;;;;;6.46;88.02;98953.58;1705182;84;21004;-77
2022/10/06 06:04:11;;;;;;;8.33;5.12;;;;;;;6.50;87.32;98950.94;1705249;84;21004;-78
2022/10/06 06:06:43;;;;;;;13.75;5.67;;;;;;;6.46;86.92;98946.10;1704631;84;21042;-78
2022/10/06 06:09:16;;;;;;;11.97;5.00;;;;;;;6.43;86.99;98948.72;1705259;83;21055;-78
2022/10/06 06:11:46;;;;;;;11.57;5.95;;;;;;;6.45;86.83;98953.57;1705262;82;21048;-78
2022/10/06 06:14:18;;;;;;;11.63;5.08;;;;;;;6.45;86.85;98948.30;1705477;83;21040;-78
2022/10/06 06:16:45;;;;;;;8.23;5.40;;;;;;;6.46;86.73;98950.05;1705412;84;21039;-78
2022/10/06 06:19:13;;;;;;;11.68;5.78;;;;;;;6.50;86.74;98952.25;1703722;84;20980;-78
2022/10/06 06:21:42;;;;;;;11.20;5.05;;;;;;;6.53;86.63;98958.85;1705270;83;21457;-78
2022/10/06 06:24:10;;;;;;;8.88;5.00;;;;;;;6.59;86.61;98947.00;1687827;83;21490;-78
2022/10/06 06:26:37;;;;;;;10.68;5.30;;;;;;;6.65;86.19;98948.78;1720589;83;20993;-78
2022/10/06 06:29:05;;;;;;;11.55;5.00;;;;;;;6.72;86.32;98950.11;1729823;81;21039;-78
2022/10/06 06:31:37;;;;;;;11.43;5.12;;;;;;;6.79;86.15;98949.69;1734307;82;21410;-78
2022/10/06 06:34:06;;;;;;;24.23;11.65;;;;;;;6.86;85.95;98952.75;1729837;82;21249;-78
2022/10/06 06:36:39;;;;;;;9.13;5.65;;;;;;;6.96;85.52;98952.76;1728061;83;21048;-77
2022/10/06 06:39:11;;;;;;;11.90;5.35;;;;;;;7.05;85.68;98953.23;1744729;82;21020;-77
2022/10/06 06:41:43;;;;;;;12.75;5.97;;;;;;;7.16;85.75;98947.93;1708919;83;20990;-77
2022/10/06 06:44:29;;;;;;;11.20;5.17;;;;;;;7.29;85.77;98948.80;1728059;83;22120;-78
2022/10/06 06:47:01;;;;;;;11.97;5.50;;;;;;;7.38;85.58;98950.11;1727476;83;20965;-78
2022/10/06 06:49:27;;;;;;;12.33;5.53;;;;;;;7.47;85.51;98950.56;1728710;82;21390;-77
2022/10/06 06:51:56;;;;;;;8.78;5.45;;;;;;;7.55;85.41;98946.12;1744431;81;20954;-78
2022/10/06 06:54:26;;;;;;;9.65;5.50;;;;;;;7.65;85.37;98948.32;1726692;83;20964;-77
2022/10/06 06:56:55;;;;;;;13.98;5.67;;;;;;;7.74;85.15;98946.09;1747208;81;21480;-77
2022/10/06 06:59:24;;;;;;;12.20;5.72;;;;;;;7.82;84.83;98953.56;1722791;82;21729;-77
2022/10/06 07:01:52;;;;;;;11.45;5.83;;;;;;;7.91;84.85;98947.36;1729296;81;21406;-77
2022/10/06 07:04:21;;;;;;;9.50;5.90;;;;;;;7.99;84.74;98942.94;1728076;83;21031;-77
2022/10/06 07:06:57;;;;;;;8.43;4.95;;;;;;;8.08;84.71;98936.73;1747534;82;20999;-78
2022/10/06 07:09:22;;;;;;;;;;;;;;;8.18;84.43;98944.19;1730308;83;21016;-77
2022/10/06 07:11:50;;;;;;;12.18;5.37;;;;;;;8.28;84.34;98939.73;1731172;82;20109;-77
2022/10/06 07:14:21;;;;;;;12.18;4.75;;;;;;;8.39;84.17;98943.18;1742902;82;20991;-77
2022/10/06 07:25:10;;;;;;;22.02;14.18;;;;;;;8.92;83.19;98947.28;1740346;82;21000;-77
2022/10/06 07:27:49;;;;;;;29.25;15.15;;;;;;;9.05;83.19;98941.48;1732164;82;21083;-77
2022/10/06 07:30:25;;;;;;;26.60;14.03;;;;;;;9.17;82.97;98947.97;1731421;83;20979;-77
2022/10/06 07:32:54;;;;;;;20.82;11.75;;;;;;;9.27;82.38;98943.93;1735285;82;21357;-77
2022/10/06 07:35:24;;;;;;;21.12;10.55;;;;;;;9.35;82.16;98942.96;1733760;82;20955;-78
2022/10/06 07:37:56;;;;;;;20.32;10.45;;;;;;;9.42;81.17;98945.11;1747773;82;21011;-77
2022/10/06 07:40:24;;;;;;;16.63;9.37;;;;;;;9.49;81.06;98943.28;1733943;82;21036;-77
2022/10/06 07:42:51;;;;;;;21.77;12.15;;;;;;;9.55;80.81;98943.21;1733500;83;21018;-77
2022/10/06 07:45:37;;;;;;;23.40;13.15;;;;;;;9.60;81.09;98949.33;1732474;83;21408;-77
2022/10/06 07:48:16;;;;;;;14.70;8.23;;;;;;;9.64;80.64;98947.56;1736935;82;20948;-77
2022/10/06 07:50:48;;;;;;;16.32;7.70;;;;;;;9.66;78.53;98948.41;1742518;82;20978;-77
2022/10/06 07:53:18;;;;;;;11.95;7.62;;;;;;;9.71;79.18;98950.55;1747726;82;20939;-77
2022/10/06 07:55:47;;;;;;;11.68;7.60;;;;;;;9.78;79.28;98948.72;1731371;82;20995;-77
2022/10/06 07:58:22;;;;;;;15.78;7.90;;;;;;;9.84;79.37;98948.64;1733837;82;20979;-77
2022/10/06 08:00:51;;;;;;;16.70;9.10;;;;;;;9.93;79.16;98946.80;1743779;81;21033;-77
2022/10/06 08:03:19;;;;;;;16.80;8.63;;;;;;;10.01;78.87;98943.63;1733757;83;21019;-77
2022/10/06 08:05:49;;;;;;;19.05;9.30;;;;;;;10.09;78.83;98938.23;1733564;83;20967;-77
2022/10/06 08:08:16;;;;;;;15.30;8.83;;;;;;;10.17;78.68;98933.69;1735067;82;20991;-77
2022/10/06 08:10:53;;;;;;;13.35;8.10;;;;;;;10.22;77.86;98929.20;1746150;82;21022;-77
2022/10/06 08:13:20;;;;;;;13.13;8.15;;;;;;;10.31;77.92;98929.56;1733750;83;20983;-77
2022/10/06 08:15:49;;;;;;;13.45;7.75;;;;;;;10.39;78.02;98926.33;1733677;83;20983;-78
2022/10/06 08:18:18;;;;;;;14.90;8.03;;;;;;;10.46;78.09;98928.48;1733000;83;20948;-78
2022/10/06 08:20:44;;;;;;;10.08;7.22;;;;;;;10.55;77.27;98930.15;1734971;82;20999;-77
2022/10/06 08:23:13;;;;;;;13.35;8.35;;;;;;;10.64;77.52;98926.48;1728888;82;20972;-77
2022/10/06 08:25:44;;;;;;;15.78;6.87;;;;;;;10.74;77.30;98924.55;1739509;82;20994;-78
2022/10/06 08:28:12;;;;;;;9.60;6.15;;;;;;;10.81;77.16;98923.10;1733757;83;21476;-78
2022/10/06 08:30:39;;;;;;;10.90;6.45;;;;;;;10.86;76.23;98929.67;1728604;83;21094;-78
2022/10/06 08:33:05;;;;;;;9.95;6.78;;;;;;;10.93;76.57;98928.66;1737427;82;21009;-77
2022/10/06 08:35:34;;;;;;;8.83;6.03;;;;;;;11.02;76.13;98927.66;1726939;82;21390;-77
2022/10/06 08:38:01;;;;;;;10.23;6.67;;;;;;;11.11;75.72;98929.72;1726049;83;20956;-78
2022/10/06 08:40:28;;;;;;;9.45;6.15;;;;;;;11.19;76.14;98928.71;1726021;83;21013;-77
2022/10/06 08:42:59;;;;;;;10.03;7.03;;;;;;;11.28;75.89;98928.99;1726312;83;21007;-77
2022/10/06 08:45:33;;;;;;;11.45;6.53;;;;;;;11.38;75.06;98926.18;1734903;82;20960;-77
2022/10/06 08:48:13;;;;;;;10.78;6.45;;;;;;;11.50;75.09;98924.61;1743854;82;21035;-77
2022/10/06 08:51:10;;;;;;;12.88;6.95;;;;;;;11.61;75.27;98925.31;1734932;82;21043;-78
2022/10/06 08:53:51;;;;;;;11.80;6.62;;;;;;;11.72;75.05;98920.24;1725171;83;21028;-78
2022/10/06 08:56:23;;;;;;;7.22;5.22;;;;;;;11.83;73.73;98924.03;1738102;82;21007;-78
2022/10/06 08:58:57;;;;;;;6.80;5.42;;;;;;;11.91;73.70;98922.07;1736877;82;21007;-78
2022/10/06 09:01:41;;;;;;;9.83;5.40;;;;;;;12.01;73.49;98919.64;1738935;82;20976;-78
2022/10/06 09:04:12;;;;;;;8.05;5.72;;;;;;;12.12;73.87;98919.91;1726532;83;21464;-78
2022/10/06 09:06:58;;;;;;;10.18;5.30;;;;;;;12.22;73.49;98916.62;1738974;82;20987;-77
2022/10/06 09:10:11;;;;;;;10.05;4.87;;;;;;;12.31;72.96;98923.06;1726462;83;21457;-77
2022/10/06 09:12:47;;;;;;;10.03;4.72;;;;;;;12.41;72.81;98913.98;1723361;82;20936;-78
2022/10/06 09:15:40;;;;;;;8.08;4.80;;;;;;;12.51;72.12;98910.64;1724854;82;21449;-78
2022/10/06 09:18:18;;;;;;;8.40;5.00;;;;;;;12.63;71.21;98908.63;1733295;82;20984;-76
2022/10/06 09:20:56;;;;;;;9.40;4.95;;;;;;;12.76;69.45;98910.09;1731554;82;20975;-78
2022/10/06 09:26:11;;;;;;;11.35;4.83;;;;;;;12.97;70.90;98905.61;1729115;82;20972;-77
2022/10/06 09:28:39;;;;;;;7.97;4.30;;;;;;;13.08;71.31;98910.19;1728540;82;21047;-78
2022/10/06 09:31:22;;;;;;;10.45;5.37;;;;;;;13.19;70.73;98903.27;1728137;82;21026;-78
2022/10/06 09:33:57;;;;;;;8.30;4.47;;;;;;;13.30;70.21;98907.89;1722855;82;21031;-78
2022/10/06 09:36:25;;;;;;;5.83;4.10;;;;;;;13.42;68.57;98905.33;1726404;82;20958;-78
2022/10/06 09:38:57;;;;;;;9.25;4.47;;;;;;;13.54;70.03;98903.31;1726027;83;21016;-78
2022/10/06 09:41:36;;;;;;;10.85;3.90;;;;;;;13.60;67.99;98907.12;1732939;82;21492;-78
2022/10/06 09:44:23;;;;;;;8.40;4.15;;;;;;;13.71;68.54;98909.50;1725988;83;21438;-78
2022/10/06 09:46:51;;;;;;;6.78;4.20;;;;;;;13.80;67.64;98904.37;1737182;82;21019;-78
2022/10/06 09:49:24;;;;;;;8.93;4.90;;;;;;;13.93;68.07;98906.22;1727068;82;21112;-78
2022/10/06 09:52:14;;;;;;;8.05;4.97;;;;;;;14.02;67.83;98903.73;1726471;82;20971;-78
2022/10/06 09:54:42;;;;;;;8.35;4.78;;;;;;;14.12;67.83;98902.58;1722343;82;20953;-78
2022/10/06 09:57:17;;;;;;;7.30;5.40;;;;;;;14.26;67.15;98902.16;1736340;81;21017;-78
2022/10/06 09:59:46;;;;;;;7.60;5.03;;;;;;;14.38;66.87;98896.91;1721277;82;21008;-78
2022/10/06 10:02:39;;;;;;;10.48;5.20;;;;;;;14.47;67.15;98899.30;1736725;82;21014;-78
2022/10/06 10:05:08;;;;;;;6.92;4.90;;;;;;;14.57;67.06;98898.53;1725881;82;21045;-78
2022/10/06 10:07:36;;;;;;;10.10;5.12;;;;;;;14.69;66.65;98903.09;1723496;82;20980;-78
2022/10/06 10:10:24;;;;;;;7.30;4.22;;;;;;;14.77;65.36;98893.06;1725817;82;20964;-78
2022/10/06 10:12:57;;;;;;;6.60;4.92;;;;;;;14.88;65.81;98894.94;1726174;83;21148;-78
2022/10/06 10:15:37;;;;;;;9.17;5.00;;;;;;;15.03;66.09;98888.20;1739297;82;20994;-78
2022/10/06 10:18:12;;;;;;;8.18;4.37;;;;;;;15.14;64.83;98888.30;1725852;82;21028;-78
2022/10/06 10:20:59;;;;;;;10.28;4.33;;;;;;;15.24;64.70;98884.38;1734957;82;21445;-78
2022/10/06 10:23:32;;;;;;;6.78;4.35;;;;;;;15.35;64.60;98884.02;1708535;82;21442;-78
2022/10/06 10:26:25;;;;;;;6.53;3.67;;;;;;;15.52;63.77;98880.75;1690653;85;20990;-78
2022/10/06 10:29:29;;;;;;;10.13;6.17;;;;;;;16.13;64.84;98876.36;1685614;85;21043;-78
2022/10/06 10:32:25;;;;;;;8.13;5.03;;;;;;;17.27;61.82;98874.05;1755373;81;20993;-78
2022/10/06 10:35:05;;;;;;;2.02;1.67;;;;;;;18.42;57.22;98866.70;1742512;82;21012;-78
2022/10/06 10:37:46;;;;;;;4.45;2.10;;;;;;;19.76;55.19;98863.61;1727993;83;21504;-77
2022/10/06 10:40:36;;;;;;;5.20;2.55;;;;;;;20.55;53.05;98853.55;1739725;82;21039;-77
2022/10/06 10:43:21;;;;;;;6.70;3.30;;;;;;;21.74;53.53;98844.80;1730379;82;21004;-77
2022/10/06 10:45:55;;;;;;;7.90;4.10;;;;;;;22.87;52.06;98846.69;1727366;83;20952;-76
2022/10/06 10:48:44;;;;;;;5.33;3.12;;;;;;;23.76;48.29;98837.48;1727685;82;21409;-77
2022/10/06 10:51:25;;;;;;;4.03;3.05;;;;;;;24.19;46.83;98834.91;1726399;83;21042;-76
2022/10/06 10:54:07;;;;;;;4.95;3.27;;;;;;;24.78;43.74;98824.29;1693986;85;21001;-78
2022/10/06 10:56:34;;;;;;;3.60;2.77;;;;;;;24.82;44.42;98822.23;1696301;84;21020;-77
2022/10/06 10:59:12;;;;;;;6.90;4.03;;;;;;;24.96;41.06;98823.44;1688667;85;21024;-78
2022/10/06 11:02:02;;;;;;;6.33;2.80;;;;;;;25.68;39.86;98819.31;1692747;85;21015;-78
2022/10/06 11:04:29;;;;;;;3.65;2.62;;;;;;;26.34;41.09;98805.02;1728168;83;21013;-77
2022/10/06 11:07:29;;;;;;;3.83;2.80;;;;;;;26.24;39.82;98804.02;1734014;82;20976;-78
2022/10/06 11:10:22;;;;;;;5.62;3.00;;;;;;;26.21;39.93;98802.89;1734320;81;21438;-78
2022/10/06 11:13:10;;;;;;;4.80;3.02;;;;;;;26.34;38.48;98801.42;1728013;83;21433;-78
2022/10/06 11:16:00;;;;;;;4.28;3.30;;;;;;;26.62;36.35;98797.77;1675853;85;21426;-78
2022/10/06 11:19:07;;;;;;;4.37;2.90;;;;;;;26.95;38.10;98802.72;1696684;83;20993;-78
2022/10/06 11:21:54;;;;;;;4.40;3.10;;;;;;;27.03;34.37;98801.22;1734338;82;21028;-78
2022/10/06 11:24:32;;;;;;;6.87;3.40;;;;;;;26.71;35.93;98788.84;1706635;83;20996;-78
2022/10/06 11:27:23;;;;;;;5.15;3.47;;;;;;;27.31;35.23;98787.97;1728109;83;21446;-78
2022/10/06 11:30:04;;;;;;;5.17;3.30;;;;;;;27.61;34.08;98788.51;1728031;83;21035;-78
2022/10/06 11:32:36;;;;;;;5.17;3.40;;;;;;;26.85;34.26;98787.66;1693837;84;21051;-78
2022/10/06 11:35:15;;;;;;;6.58;3.55;;;;;;;26.16;33.28;98789.67;1694783;84;20973;-78
2022/10/06 11:37:56;;;;;;;3.80;3.35;;;;;;;25.78;34.77;98795.88;1687857;85;21041;-78
2022/10/06 11:41:08;;;;;;;5.60;3.72;;;;;;;25.76;35.71;98788.84;1740698;82;20996;-78
2022/10/06 11:44:12;;;;;;;5.83;3.35;;;;;;;25.80;36.30;98788.48;1725891;83;21071;-78
2022/10/06 11:46:47;;;;;;;4.80;4.30;;;;;;;25.86;34.25;98783.03;1727205;83;21076;-78
2022/10/06 11:49:31;;;;;;;5.25;4.08;;;;;;;25.01;34.43;98790.53;1726082;83;21040;-78
2022/10/06 11:52:12;;;;;;;5.55;4.05;;;;;;;24.22;36.20;98787.78;1715876;83;21012;-77
2022/10/06 11:54:52;;;;;;;7.17;4.45;;;;;;;23.70;36.85;98789.19;1727958;83;21619;-77
2022/10/06 11:57:27;;;;;;;5.85;3.80;;;;;;;23.45;37.31;98780.11;1727926;83;21559;-78
2022/10/06 12:00:05;;;;;;;8.70;4.37;;;;;;;23.15;38.32;98782.61;1731340;82;21062;-78
2022/10/06 12:02:42;;;;;;;5.95;4.15;;;;;;;22.75;38.34;98781.66;1739961;82;20984;-78
2022/10/06 12:05:18;;;;;;;7.58;4.05;;;;;;;22.13;38.15;98785.72;1739702;82;21434;-78
2022/10/06 12:07:59;;;;;;;8.63;4.00;;;;;;;21.68;38.87;98783.13;1743520;82;21031;-78
2022/10/06 12:10:32;;;;;;;5.47;3.55;;;;;;;21.35;40.21;98781.94;1729108;82;20960;-78
2022/10/06 12:13:14;;;;;;;;;;;;;;;21.34;40.53;98780.70;1730726;83;21342;-78